Time;durP1;ratioP1;P1;durP2;ratioP2;P2;SDS_P1;SDS_P2;PMS_P1;PMS_P2;Temp;Humidity;BMP_temperature;BMP_pressure;BME280_temperature;BME280_humidity;BME280_pressure;Samples;Min_cycle;Max_cycle;Signal;HPM_P1;HPM_P2
2023/04/03 00:00:05;;;;;;;5.28;3.90;;;;;;;;;;5002863;28;20030;-60
2023/04/03 00:02:31;;;;;;;7.20;4.32;;;;;;;;;;4991108;28;20405;-59
2023/04/03 00:04:57;;;;;;;7.20;3.75;;;;;;;;;;4988684;28;20406;-59
2023/04/03 00:07:22;;;;;;;7.45;3.90;;;;;;;;;;4990924;28;20042;-59
2023/04/03 00:09:47;;;;;;;7.75;4.75;;;;;;;;;;4996849;28;20360;-58
2023/04/03 00:12:13;;;;;;;6.35;4.00;;;;;;;;;;4993893;28;20403;-58
2023/04/03 00:14:38;;;;;;;6.80;4.13;;;;;;;;;;4993091;28;20467;-58
2023/04/03 00:17:03;;;;;;;9.45;4.00;;;;;;;;;;4997450;28;20038;-59
2023/04/03 00:19:29;;;;;;;6.47;4.00;;;;;;;;;;4994001;28;20064;-60
2023/04/03 00:21:54;;;;;;;9.15;3.95;;;;;;;;;;4998608;28;20038;-59
2023/04/03 00:24:19;;;;;;;5.70;3.90;;;;;;;;;;4996835;28;20703;-60
2023/04/03 00:26:45;;;;;;;7.75;3.90;;;;;;;;;;4994902;28;20462;-61
2023/04/03 00:29:10;;;;;;;7.63;4.32;;;;;;;;;;4994752;28;20372;-57
2023/04/03 00:31:35;;;;;;;7.57;3.90;;;;;;;;;;4990395;28;20403;-58
2023/04/03 00:34:01;;;;;;;8.38;4.10;;;;;;;;;;4998300;28;20399;-60
2023/04/03 00:36:26;;;;;;;6.72;4.45;;;;;;;;;;4994500;28;20026;-58
2023/04/03 00:38:51;;;;;;;7.63;3.85;;;;;;;;;;4993210;28;20176;-59
2023/04/03 00:41:17;;;;;;;5.68;3.58;;;;;;;;;;5000874;28;20068;-60
2023/04/03 00:43:43;;;;;;;8.25;4.30;;;;;;;;;;4995094;28;20087;-59
2023/04/03 00:46:08;;;;;;;6.25;3.78;;;;;;;;;;4993113;28;20034;-59
2023/04/03 00:48:40;;;;;;;7.43;3.88;;;;;;;;;;5008248;28;20069;-58
2023/04/03 00:51:06;;;;;;;7.32;4.60;;;;;;;;;;5009602;28;20472;-58
2023/04/03 00:53:44;;;;;;;7.63;4.07;;;;;;;;;;4997244;28;20034;-61
2023/04/03 00:56:12;;;;;;;6.88;3.90;;;;;;;;;;4996514;28;20034;-58
2023/04/03 00:58:38;;;;;;;;;;;;;;;;;;4997670;28;20041;-61
2023/04/03 01:01:05;;;;;;;5.78;3.67;;;;;;;;;;5008871;28;20330;-58
2023/04/03 01:03:31;;;;;;;8.07;3.80;;;;;;;;;;5009239;28;20044;-59
2023/04/03 01:05:57;;;;;;;;;;;;;;;;;;4994093;28;20471;-60
2023/04/03 01:08:23;;;;;;;5.65;3.60;;;;;;;;;;5003862;28;19996;-59
2023/04/03 01:10:48;;;;;;;5.72;4.10;;;;;;;;;;4993199;28;20570;-57
2023/04/03 01:13:18;;;;;;;5.82;3.85;;;;;;;;;;4992620;28;20623;-59
2023/04/03 01:15:43;;;;;;;6.03;3.67;;;;;;;;;;5000031;28;20033;-58
2023/04/03 01:18:09;;;;;;;6.00;3.85;;;;;;;;;;5008255;28;20033;-60
2023/04/03 01:20:55;;;;;;;8.75;3.78;;;;;;;;;;4993383;28;20037;-62
2023/04/03 01:23:28;;;;;;;5.47;3.80;;;;;;;;;;4987366;28;20035;-59
2023/04/03 01:25:56;;;;;;;7.05;3.72;;;;;;;;;;4998912;28;20026;-59
2023/04/03 01:28:23;;;;;;;6.00;4.15;;;;;;;;;;5007943;28;20632;-60
2023/04/03 01:30:51;;;;;;;6.07;3.90;;;;;;;;;;4995162;28;20142;-60
2023/04/03 01:33:17;;;;;;;4.72;3.42;;;;;;;;;;5009414;28;20027;-59
2023/04/03 01:35:43;;;;;;;7.25;3.97;;;;;;;;;;4999271;28;20100;-62
2023/04/03 01:38:08;;;;;;;5.70;3.75;;;;;;;;;;4999028;28;20030;-60
2023/04/03 01:40:34;;;;;;;9.32;3.97;;;;;;;;;;4995941;28;20066;-59
2023/04/03 01:43:00;;;;;;;8.20;3.95;;;;;;;;;;5000465;28;20038;-58
2023/04/03 01:45:25;;;;;;;8.05;4.40;;;;;;;;;;4992469;28;20030;-60
2023/04/03 01:47:50;;;;;;;6.18;4.28;;;;;;;;;;4993488;28;20030;-61
2023/04/03 01:50:16;;;;;;;5.90;3.95;;;;;;;;;;5010682;28;20042;-59
2023/04/03 01:52:41;;;;;;;9.48;4.03;;;;;;;;;;4990927;28;20310;-59
2023/04/03 01:55:07;;;;;;;6.15;3.97;;;;;;;;;;4997610;28;20031;-59
2023/04/03 01:57:33;;;;;;;6.70;4.18;;;;;;;;;;4991921;28;20034;-59
2023/04/03 01:59:58;;;;;;;6.60;3.63;;;;;;;;;;4999397;28;20030;-59
2023/04/03 02:02:23;;;;;;;5.38;4.00;;;;;;;;;;4991912;28;20056;-60
2023/04/03 02:04:50;;;;;;;5.30;4.00;;;;;;;;;;4993570;28;20395;-60
2023/04/03 02:07:16;;;;;;;6.10;3.80;;;;;;;;;;5005632;28;20491;-61
2023/04/03 02:09:42;;;;;;;5.95;4.20;;;;;;;;;;4993524;28;20118;-60
2023/04/03 02:12:08;;;;;;;7.47;3.60;;;;;;;;;;5007630;28;20022;-59
2023/04/03 02:14:33;;;;;;;7.68;3.90;;;;;;;;;;5007116;28;20026;-59
2023/04/03 02:17:00;;;;;;;5.53;3.85;;;;;;;;;;4995405;28;20052;-58
2023/04/03 02:19:25;;;;;;;5.95;3.72;;;;;;;;;;4996036;28;20653;-60
2023/04/03 02:21:51;;;;;;;6.93;3.80;;;;;;;;;;4992535;28;20121;-58
2023/04/03 02:24:16;;;;;;;5.72;3.78;;;;;;;;;;4994165;28;20022;-58
2023/04/03 02:26:41;;;;;;;6.70;4.03;;;;;;;;;;4976322;28;20076;-60
2023/04/03 02:29:07;;;;;;;7.95;3.88;;;;;;;;;;4994730;28;20049;-59
2023/04/03 02:31:34;;;;;;;6.10;3.65;;;;;;;;;;4991287;28;20025;-59
2023/04/03 02:34:01;;;;;;;5.70;3.72;;;;;;;;;;5010242;28;20038;-59
2023/04/03 02:36:26;;;;;;;5.88;3.67;;;;;;;;;;5006144;28;20141;-59
2023/04/03 02:38:56;;;;;;;7.82;3.72;;;;;;;;;;5000137;28;20034;-58
2023/04/03 02:41:21;;;;;;;5.85;3.50;;;;;;;;;;4991935;28;20467;-56
2023/04/03 02:43:48;;;;;;;7.47;3.45;;;;;;;;;;5005676;28;20386;-57
2023/04/03 02:46:15;;;;;;;5.82;3.90;;;;;;;;;;5006728;28;20112;-60
2023/04/03 02:48:41;;;;;;;7.07;3.55;;;;;;;;;;4999977;28;20461;-58
2023/04/03 02:51:06;;;;;;;6.03;3.90;;;;;;;;;;5007080;28;20037;-57
2023/04/03 02:53:31;;;;;;;8.38;3.60;;;;;;;;;;5003951;28;20037;-59
2023/04/03 02:56:01;;;;;;;6.88;3.63;;;;;;;;;;4991736;28;20114;-58
2023/04/03 02:58:27;;;;;;;6.93;3.53;;;;;;;;;;4993576;28;20132;-59
2023/04/03 03:00:55;;;;;;;5.57;3.22;;;;;;;;;;4993378;28;20057;-59
2023/04/03 03:03:20;;;;;;;5.35;3.30;;;;;;;;;;5007574;28;20593;-60
2023/04/03 03:05:47;;;;;;;5.75;3.72;;;;;;;;;;4992719;28;20034;-59
2023/04/03 03:08:13;;;;;;;6.35;4.00;;;;;;;;;;4994783;28;20466;-59
2023/04/03 03:10:38;;;;;;;7.18;3.15;;;;;;;;;;5007460;28;20046;-60
2023/04/03 03:13:03;;;;;;;4.30;3.17;;;;;;;;;;5005744;28;20061;-62
2023/04/03 03:15:29;;;;;;;4.85;3.08;;;;;;;;;;4992642;28;20121;-58
2023/04/03 03:17:54;;;;;;;5.65;2.95;;;;;;;;;;4998336;28;20034;-61
2023/04/03 03:20:20;;;;;;;10.07;3.28;;;;;;;;;;5004200;28;20080;-59
2023/04/03 03:22:46;;;;;;;8.45;3.20;;;;;;;;;;5005028;28;20133;-62
2023/04/03 03:25:11;;;;;;;5.25;3.00;;;;;;;;;;4992531;28;20030;-60
2023/04/03 03:27:36;;;;;;;4.82;3.05;;;;;;;;;;4992962;28;20030;-60
2023/04/03 03:30:02;;;;;;;4.60;3.20;;;;;;;;;;4992249;28;20450;-58
2023/04/03 03:32:27;;;;;;;4.75;2.88;;;;;;;;;;5006126;28;20396;-60
2023/04/03 03:34:52;;;;;;;5.72;3.35;;;;;;;;;;4992872;28;20453;-62
2023/04/03 03:37:19;;;;;;;4.15;2.90;;;;;;;;;;4997461;28;20045;-58
2023/04/03 03:39:44;;;;;;;4.35;2.90;;;;;;;;;;4994905;28;20026;-60
2023/04/03 03:42:11;;;;;;;5.10;3.15;;;;;;;;;;5004269;28;20153;-60
2023/04/03 03:44:36;;;;;;;4.68;3.00;;;;;;;;;;5008379;28;20697;-58
2023/04/03 03:47:02;;;;;;;5.72;3.15;;;;;;;;;;5004302;28;20125;-59
2023/04/03 03:49:28;;;;;;;4.85;3.25;;;;;;;;;;4991672;28;20122;-58
2023/04/03 03:51:54;;;;;;;7.20;3.00;;;;;;;;;;4990976;28;20551;-58
2023/04/03 03:54:19;;;;;;;4.63;3.15;;;;;;;;;;5007728;28;20039;-59
2023/04/03 03:56:45;;;;;;;7.15;3.35;;;;;;;;;;4998817;28;20034;-59
2023/04/03 03:59:11;;;;;;;5.80;3.05;;;;;;;;;;5005094;28;20041;-58
2023/04/03 04:01:36;;;;;;;4.95;3.00;;;;;;;;;;5005708;28;20081;-59
2023/04/03 04:04:02;;;;;;;5.47;3.47;;;;;;;;;;5004524;28;20450;-59
2023/04/03 04:06:30;;;;;;;4.82;3.03;;;;;;;;;;4998591;28;20117;-59
2023/04/03 04:08:59;;;;;;;7.00;3.25;;;;;;;;;;5005677;28;20107;-58
2023/04/03 04:11:24;;;;;;;6.43;3.50;;;;;;;;;;4990674;28;20042;-62
2023/04/03 04:13:52;;;;;;;5.85;3.30;;;;;;;;;;5006987;28;20038;-62
2023/04/03 04:16:19;;;;;;;9.25;5.22;;;;;;;;;;4998044;28;20044;-58
2023/04/03 04:18:44;;;;;;;18.35;10.25;;;;;;;;;;4998812;28;20045;-61
2023/04/03 04:21:10;;;;;;;16.23;9.15;;;;;;;;;;4991130;28;20124;-63
2023/04/03 04:23:37;;;;;;;12.93;7.60;;;;;;;;;;4998309;28;20077;-59
2023/04/03 04:26:02;;;;;;;10.57;7.03;;;;;;;;;;4997080;28;20120;-60
2023/04/03 04:28:32;;;;;;;7.05;5.05;;;;;;;;;;4990615;28;20032;-59
2023/04/03 04:30:59;;;;;;;9.02;6.32;;;;;;;;;;4993022;28;20097;-59
2023/04/03 04:33:26;;;;;;;7.90;5.45;;;;;;;;;;4996459;28;20080;-59
2023/04/03 04:35:52;;;;;;;8.48;4.88;;;;;;;;;;5002433;28;20067;-60
2023/04/03 04:38:19;;;;;;;6.68;4.70;;;;;;;;;;4995337;28;20038;-59
2023/04/03 04:40:45;;;;;;;9.10;5.32;;;;;;;;;;4989877;28;20097;-62
2023/04/03 04:43:14;;;;;;;7.95;4.88;;;;;;;;;;4991376;28;20543;-58
2023/04/03 04:45:40;;;;;;;7.32;4.00;;;;;;;;;;4990898;28;20035;-58
2023/04/03 04:48:05;;;;;;;7.55;3.65;;;;;;;;;;5006009;28;20490;-61
2023/04/03 04:50:31;;;;;;;6.15;3.92;;;;;;;;;;4996572;28;20081;-59
2023/04/03 04:52:56;;;;;;;6.25;3.65;;;;;;;;;;4991899;28;20147;-59
2023/04/03 04:55:21;;;;;;;6.95;4.07;;;;;;;;;;4991105;28;20030;-58
2023/04/03 04:57:48;;;;;;;6.07;4.20;;;;;;;;;;4994852;28;20049;-62
2023/04/03 05:00:15;;;;;;;6.68;4.78;;;;;;;;;;5005658;28;20036;-59
2023/04/03 05:02:40;;;;;;;5.68;3.95;;;;;;;;;;4993940;28;20038;-62
2023/04/03 05:05:06;;;;;;;6.38;3.95;;;;;;;;;;4992164;28;20535;-59
2023/04/03 05:07:33;;;;;;;6.45;4.05;;;;;;;;;;4992351;28;20042;-59
2023/04/03 05:09:59;;;;;;;7.45;4.10;;;;;;;;;;5005722;28;20129;-60
2023/04/03 05:12:25;;;;;;;5.72;3.65;;;;;;;;;;5009650;28;20030;-59
2023/04/03 05:14:55;;;;;;;7.00;3.90;;;;;;;;;;5000625;28;20176;-58
2023/04/03 05:17:21;;;;;;;5.63;3.67;;;;;;;;;;4987148;28;20754;-59
2023/04/03 05:19:50;;;;;;;5.78;3.90;;;;;;;;;;4983625;28;20414;-60
2023/04/03 05:22:18;;;;;;;5.57;3.58;;;;;;;;;;4992821;28;20042;-58
2023/04/03 05:24:44;;;;;;;8.07;3.75;;;;;;;;;;4993638;28;20042;-59
2023/04/03 05:27:09;;;;;;;6.82;3.60;;;;;;;;;;4992951;28;20097;-58
2023/04/03 05:29:38;;;;;;;6.65;3.95;;;;;;;;;;5007992;28;20044;-59
2023/04/03 05:32:04;;;;;;;6.47;3.83;;;;;;;;;;4996141;28;20034;-60
2023/04/03 05:34:30;;;;;;;6.32;3.60;;;;;;;;;;4992456;28;20033;-59
2023/04/03 05:36:55;;;;;;;10.05;3.53;;;;;;;;;;4998625;28;20089;-58
2023/04/03 05:39:22;;;;;;;6.28;4.00;;;;;;;;;;5003840;28;20038;-58
2023/04/03 05:41:47;;;;;;;6.88;4.07;;;;;;;;;;4995911;28;20038;-60
2023/04/03 05:44:13;;;;;;;7.10;3.80;;;;;;;;;;5000350;28;20045;-60
2023/04/03 05:46:41;;;;;;;8.10;3.92;;;;;;;;;;4998988;28;20041;-60
2023/04/03 05:49:08;;;;;;;7.32;3.85;;;;;;;;;;4989404;28;20097;-60
2023/04/03 05:51:35;;;;;;;9.30;4.35;;;;;;;;;;5000054;28;20049;-58
2023/04/03 05:54:34;;;;;;;6.25;3.85;;;;;;;;;;4997063;28;20030;-60
2023/04/03 05:57:09;;;;;;;7.22;3.78;;;;;;;;;;5000776;28;20077;-60
2023/04/03 05:59:35;;;;;;;6.97;3.70;;;;;;;;;;5011329;28;20065;-60
2023/04/03 06:02:02;;;;;;;7.45;4.03;;;;;;;;;;4998593;28;20034;-58
2023/04/03 06:04:28;;;;;;;7.05;3.88;;;;;;;;;;5000946;28;20124;-59
2023/04/03 06:06:54;;;;;;;8.00;4.15;;;;;;;;;;5009979;28;20041;-58
2023/04/03 06:09:21;;;;;;;9.52;4.50;;;;;;;;;;5001521;28;20066;-60
2023/04/03 06:11:46;;;;;;;9.95;4.00;;;;;;;;;;4998541;28;20562;-59
2023/04/03 06:14:12;;;;;;;6.32;3.60;;;;;;;;;;5000976;28;20030;-62
2023/04/03 06:16:38;;;;;;;7.53;4.10;;;;;;;;;;5000467;28;21582;-60
2023/04/03 06:19:06;;;;;;;7.75;4.20;;;;;;;;;;5009068;28;20518;-60
2023/04/03 06:21:32;;;;;;;6.95;3.97;;;;;;;;;;5000008;28;20041;-60
2023/04/03 06:23:57;;;;;;;7.07;3.80;;;;;;;;;;4994181;28;20073;-59
2023/04/03 06:26:23;;;;;;;10.82;4.75;;;;;;;;;;5000288;28;20041;-59
2023/04/03 06:28:48;;;;;;;9.48;4.07;;;;;;;;;;5015155;28;20082;-61
2023/04/03 06:31:13;;;;;;;6.95;4.13;;;;;;;;;;4999068;28;20140;-59
2023/04/03 06:33:39;;;;;;;7.18;4.50;;;;;;;;;;5000319;28;20035;-59
2023/04/03 06:36:05;;;;;;;9.70;4.30;;;;;;;;;;5000096;28;20115;-60
2023/04/03 06:38:30;;;;;;;6.75;4.00;;;;;;;;;;5003980;28;20095;-60
2023/04/03 06:40:56;;;;;;;7.97;4.28;;;;;;;;;;4994497;28;20112;-59
2023/04/03 06:43:22;;;;;;;7.82;3.88;;;;;;;;;;5012081;28;20033;-59
2023/04/03 06:45:47;;;;;;;7.85;3.90;;;;;;;;;;4999586;28;20029;-59
2023/04/03 06:48:12;;;;;;;7.85;4.90;;;;;;;;;;4999301;28;20034;-60
2023/04/03 06:50:38;;;;;;;7.38;3.80;;;;;;;;;;5000905;28;21121;-60
2023/04/03 06:53:04;;;;;;;5.85;3.55;;;;;;;;;;4994997;28;20065;-59
2023/04/03 06:55:29;;;;;;;8.15;3.97;;;;;;;;;;4994323;28;20038;-58
2023/04/03 06:57:55;;;;;;;9.35;3.80;;;;;;;;;;4997736;28;20092;-60
2023/04/03 07:00:20;;;;;;;6.88;3.78;;;;;;;;;;4991475;28;20044;-58
2023/04/03 07:02:46;;;;;;;7.65;3.70;;;;;;;;;;4998238;28;20034;-58
2023/04/03 07:05:12;;;;;;;7.18;3.60;;;;;;;;;;4998553;28;20049;-59
2023/04/03 07:07:38;;;;;;;6.47;4.13;;;;;;;;;;4996785;28;20040;-59
2023/04/03 07:10:03;;;;;;;9.38;3.92;;;;;;;;;;4996059;28;20491;-59
2023/04/03 07:12:29;;;;;;;9.13;3.75;;;;;;;;;;4996883;28;20036;-59
2023/04/03 07:14:54;;;;;;;8.27;3.90;;;;;;;;;;4999501;28;20392;-59
2023/04/03 07:17:20;;;;;;;7.57;3.58;;;;;;;;;;4995920;28;20072;-60
2023/04/03 07:19:45;;;;;;;5.88;3.10;;;;;;;;;;5013313;28;20144;-59
2023/04/03 07:22:11;;;;;;;6.78;3.90;;;;;;;;;;4995178;28;20133;-58
2023/04/03 07:24:36;;;;;;;6.60;3.78;;;;;;;;;;4997756;28;20023;-62
2023/04/03 07:27:02;;;;;;;16.63;7.00;;;;;;;;;;4997343;28;20190;-58
2023/04/03 07:29:28;;;;;;;9.38;4.25;;;;;;;;;;5005130;28;20404;-59
2023/04/03 07:31:55;;;;;;;6.43;3.95;;;;;;;;;;4997301;28;20456;-58
2023/04/03 07:34:20;;;;;;;7.45;3.45;;;;;;;;;;4989254;28;20045;-61
2023/04/03 07:36:45;;;;;;;9.73;3.85;;;;;;;;;;4993091;28;20034;-60
2023/04/03 07:39:11;;;;;;;7.82;3.70;;;;;;;;;;4990598;28;20033;-60
2023/04/03 07:41:36;;;;;;;6.95;3.80;;;;;;;;;;4988755;28;20102;-58
2023/04/03 07:44:02;;;;;;;6.47;4.10;;;;;;;;;;4990890;28;20144;-60
2023/04/03 07:46:27;;;;;;;6.60;3.65;;;;;;;;;;4989624;28;20547;-57
2023/04/03 07:48:53;;;;;;;9.15;4.07;;;;;;;;;;4992082;28;20629;-59
2023/04/03 07:51:19;;;;;;;10.00;3.75;;;;;;;;;;4990589;28;20030;-59
2023/04/03 07:53:44;;;;;;;6.95;3.92;;;;;;;;;;4988347;28;20019;-60
2023/04/03 07:56:09;;;;;;;7.50;4.07;;;;;;;;;;4992674;28;20061;-58
2023/04/03 07:58:35;;;;;;;6.28;3.53;;;;;;;;;;4990693;28;20023;-58
2023/04/03 08:01:01;;;;;;;9.02;3.55;;;;;;;;;;4992419;28;20029;-60
2023/04/03 08:03:26;;;;;;;7.30;3.20;;;;;;;;;;4990471;28;20123;-61
2023/04/03 08:05:53;;;;;;;6.63;3.42;;;;;;;;;;4989616;28;20347;-60
2023/04/03 08:08:20;;;;;;;7.43;3.17;;;;;;;;;;4996739;28;20452;-64
2023/04/03 08:10:48;;;;;;;6.55;3.28;;;;;;;;;;4989934;28;20365;-61
2023/04/03 08:13:13;;;;;;;8.38;3.33;;;;;;;;;;4992416;28;20049;-57
2023/04/03 08:15:38;;;;;;;6.13;3.47;;;;;;;;;;4991932;28;20108;-58
2023/04/03 08:18:04;;;;;;;8.82;3.50;;;;;;;;;;4993019;28;20555;-59
2023/04/03 08:20:29;;;;;;;7.10;3.40;;;;;;;;;;4994415;28;20034;-58
2023/04/03 08:22:55;;;;;;;7.55;3.40;;;;;;;;;;4995549;28;20032;-59
2023/04/03 08:25:20;;;;;;;5.45;3.10;;;;;;;;;;4997002;28;20101;-56
2023/04/03 08:27:45;;;;;;;7.63;3.63;;;;;;;;;;4993310;28;20056;-58
2023/04/03 08:30:11;;;;;;;8.35;3.67;;;;;;;;;;4994694;28;20049;-59
2023/04/03 08:32:36;;;;;;;7.53;3.30;;;;;;;;;;5003599;28;20109;-58
2023/04/03 08:35:02;;;;;;;8.20;3.50;;;;;;;;;;5000244;28;20037;-58
2023/04/03 08:37:27;;;;;;;6.95;3.40;;;;;;;;;;4999913;28;20561;-59
2023/04/03 08:39:53;;;;;;;6.10;3.25;;;;;;;;;;5001150;28;20034;-58
2023/04/03 08:42:19;;;;;;;10.05;3.67;;;;;;;;;;4995592;28;20041;-59
2023/04/03 08:45:01;;;;;;;7.70;3.88;;;;;;;;;;4997323;28;20031;-59
2023/04/03 08:47:41;;;;;;;7.03;3.45;;;;;;;;;;4997630;28;20458;-60
2023/04/03 08:50:10;;;;;;;5.88;3.30;;;;;;;;;;5001963;28;20088;-59
2023/04/03 08:52:38;;;;;;;6.88;3.17;;;;;;;;;;4999737;28;20030;-59
2023/04/03 08:55:06;;;;;;;8.18;3.40;;;;;;;;;;4997899;28;20034;-62
2023/04/03 08:57:44;;;;;;;7.15;3.35;;;;;;;;;;5000796;28;20152;-58
2023/04/03 09:00:17;;;;;;;5.72;3.45;;;;;;;;;;4994879;28;20116;-58
2023/04/03 09:02:43;;;;;;;5.75;3.20;;;;;;;;;;4998213;28;20039;-58
2023/04/03 09:05:12;;;;;;;6.53;3.78;;;;;;;;;;4993738;28;20042;-60
2023/04/03 09:07:41;;;;;;;5.72;3.30;;;;;;;;;;4991145;28;20030;-56
2023/04/03 09:10:08;;;;;;;6.85;3.40;;;;;;;;;;5000707;28;20034;-59
2023/04/03 09:12:38;;;;;;;9.40;4.00;;;;;;;;;;4999265;28;20224;-58
2023/04/03 09:15:15;;;;;;;5.93;3.45;;;;;;;;;;4996471;28;20275;-59
2023/04/03 09:17:43;;;;;;;5.18;2.90;;;;;;;;;;4996883;28;20120;-56
2023/04/03 09:20:18;;;;;;;7.45;2.70;;;;;;;;;;4999717;28;20026;-56
2023/04/03 09:22:44;;;;;;;8.77;3.75;;;;;;;;;;5000323;28;20081;-58
2023/04/03 09:25:23;;;;;;;11.13;4.03;;;;;;;;;;4996203;28;20032;-58
2023/04/03 09:27:48;;;;;;;6.13;3.00;;;;;;;;;;5001382;28;20046;-60
2023/04/03 09:30:19;;;;;;;6.43;3.00;;;;;;;;;;4998002;28;20076;-60
2023/04/03 09:32:46;;;;;;;6.53;3.70;;;;;;;;;;5011161;28;20041;-59
2023/04/03 09:35:22;;;;;;;6.28;2.90;;;;;;;;;;4999876;28;20029;-56
2023/04/03 09:37:49;;;;;;;6.38;2.83;;;;;;;;;;4997673;28;20034;-58
2023/04/03 09:40:26;;;;;;;5.45;3.25;;;;;;;;;;4993367;28;20037;-59
2023/04/03 09:42:52;;;;;;;;;;;;;;;;;;4998081;28;20034;-58
2023/04/03 09:45:30;;;;;;;5.40;2.80;;;;;;;;;;4996214;28;20279;-57
2023/04/03 09:48:04;;;;;;;5.72;3.40;;;;;;;;;;4997218;28;20035;-59
2023/04/03 09:50:30;;;;;;;6.75;3.17;;;;;;;;;;4999138;28;20029;-59
2023/04/03 09:52:55;;;;;;;8.57;3.13;;;;;;;;;;5000850;28;20059;-58
2023/04/03 09:55:26;;;;;;;6.32;3.40;;;;;;;;;;4994077;28;20571;-59
2023/04/03 09:57:52;;;;;;;8.23;3.03;;;;;;;;;;4998151;28;20053;-60
2023/04/03 10:00:21;;;;;;;7.90;3.40;;;;;;;;;;4998356;28;20553;-57
2023/04/03 10:02:49;;;;;;;6.43;2.90;;;;;;;;;;4996452;28;20070;-58
2023/04/03 10:05:33;;;;;;;6.75;3.45;;;;;;;;;;4990619;28;20026;-59
2023/04/03 10:08:09;;;;;;;7.53;2.80;;;;;;;;;;4994509;28;20034;-59
2023/04/03 10:10:35;;;;;;;7.45;2.80;;;;;;;;;;4993853;28;20575;-59
2023/04/03 10:13:10;;;;;;;4.28;2.50;;;;;;;;;;5000232;28;20034;-57
2023/04/03 10:15:44;;;;;;;6.40;3.20;;;;;;;;;;4996864;28;20139;-56
2023/04/03 10:18:36;;;;;;;4.20;2.60;;;;;;;;;;4990971;28;20056;-58
2023/04/03 10:21:24;;;;;;;5.60;2.45;;;;;;;;;;4996128;28;20632;-59
2023/04/03 10:24:01;;;;;;;6.30;2.90;;;;;;;;;;4999703;28;20506;-57
2023/04/03 10:26:27;;;;;;;;;;;;;;;;;;5001833;28;20044;-58
2023/04/03 10:29:00;;;;;;;4.53;2.88;;;;;;;;;;5001688;28;20322;-59
2023/04/03 10:31:33;;;;;;;7.68;2.65;;;;;;;;;;4994029;28;20042;-61
2023/04/03 10:34:05;;;;;;;7.15;2.90;;;;;;;;;;4997244;28;20467;-61
2023/04/03 10:36:50;;;;;;;5.22;2.88;;;;;;;;;;4997301;28;20096;-59
2023/04/03 10:39:34;;;;;;;6.22;2.97;;;;;;;;;;4998317;28;20049;-59
2023/04/03 10:42:09;;;;;;;4.03;2.67;;;;;;;;;;4995931;28;20061;-61
2023/04/03 10:45:06;;;;;;;7.15;3.10;;;;;;;;;;5010607;28;20355;-59
2023/04/03 10:47:54;;;;;;;7.38;3.08;;;;;;;;;;4985647;28;20038;-60
2023/04/03 10:50:38;;;;;;;5.75;2.78;;;;;;;;;;4994304;28;20045;-60
2023/04/03 10:53:17;;;;;;;7.38;2.65;;;;;;;;;;4993885;28;20026;-62
2023/04/03 10:55:45;;;;;;;7.57;2.85;;;;;;;;;;4995787;28;20034;-58
2023/04/03 10:58:36;;;;;;;6.15;2.80;;;;;;;;;;4995403;28;20482;-58
2023/04/03 11:01:22;;;;;;;7.43;3.35;;;;;;;;;;4993275;28;20410;-58
2023/04/03 11:03:56;;;;;;;7.55;2.97;;;;;;;;;;4998383;28;20049;-58
2023/04/03 11:06:24;;;;;;;7.60;2.97;;;;;;;;;;4999846;28;20117;-57
2023/04/03 11:08:56;;;;;;;8.55;2.97;;;;;;;;;;4998848;28;20030;-57
2023/04/03 11:11:25;;;;;;;6.57;3.00;;;;;;;;;;4995928;28;20470;-56
2023/04/03 11:13:54;;;;;;;5.68;3.00;;;;;;;;;;5000072;28;20548;-58
2023/04/03 11:16:23;;;;;;;5.93;2.60;;;;;;;;;;4998924;28;20382;-57
2023/04/03 11:18:56;;;;;;;6.53;2.80;;;;;;;;;;4996631;28;20488;-56
2023/04/03 11:21:24;;;;;;;6.60;2.92;;;;;;;;;;4996360;28;20125;-58
2023/04/03 11:23:51;;;;;;;5.05;2.67;;;;;;;;;;4999918;28;20550;-57
2023/04/03 11:26:21;;;;;;;4.95;2.67;;;;;;;;;;4997384;28;20081;-54
2023/04/03 11:28:51;;;;;;;7.22;2.83;;;;;;;;;;4996025;28;20053;-60
2023/04/03 11:31:23;;;;;;;6.10;2.75;;;;;;;;;;4998517;28;20487;-62
2023/04/03 11:34:03;;;;;;;4.68;2.63;;;;;;;;;;4998589;28;20162;-56
2023/04/03 11:36:59;;;;;;;5.10;2.75;;;;;;;;;;5001869;28;20052;-53
2023/04/03 11:39:28;;;;;;;5.97;2.70;;;;;;;;;;4995447;28;20437;-58
2023/04/03 11:41:53;;;;;;;5.30;2.45;;;;;;;;;;4993004;28;20030;-57
2023/04/03 11:44:30;;;;;;;5.95;2.92;;;;;;;;;;4992697;28;21757;-55
2023/04/03 11:46:57;;;;;;;6.60;3.20;;;;;;;;;;4992888;28;20362;-55
2023/04/03 11:49:42;;;;;;;5.45;2.60;;;;;;;;;;4994884;28;20042;-61
2023/04/03 11:52:10;;;;;;;5.22;2.38;;;;;;;;;;4991662;28;20092;-58
2023/04/03 11:54:46;;;;;;;7.00;3.10;;;;;;;;;;4995116;28;20026;-56
2023/04/03 11:57:22;;;;;;;4.15;2.47;;;;;;;;;;4997369;28;20091;-57
2023/04/03 11:59:48;;;;;;;7.47;2.50;;;;;;;;;;4997667;28;20547;-57
2023/04/03 12:02:32;;;;;;;5.55;2.28;;;;;;;;;;4997354;28;20040;-58
2023/04/03 12:05:16;;;;;;;6.78;2.60;;;;;;;;;;4993515;28;20121;-58
2023/04/03 12:07:42;;;;;;;7.78;3.50;;;;;;;;;;4999937;28;20049;-59
2023/04/03 12:10:16;;;;;;;9.25;4.30;;;;;;;;;;4996840;28;20060;-61
2023/04/03 12:12:41;;;;;;;5.88;2.65;;;;;;;;;;4999760;28;20716;-58
2023/04/03 12:15:21;;;;;;;11.23;4.40;;;;;;;;;;4997824;28;20040;-60
2023/04/03 12:17:47;;;;;;;5.78;2.72;;;;;;;;;;5012114;28;20411;-59
2023/04/03 12:20:32;;;;;;;9.15;4.00;;;;;;;;;;5001256;28;20550;-56
2023/04/03 12:23:07;;;;;;;6.60;2.63;;;;;;;;;;4997558;28;20034;-58
2023/04/03 12:25:50;;;;;;;3.72;2.40;;;;;;;;;;5001579;28;20096;-59
2023/04/03 12:28:15;;;;;;;6.93;3.30;;;;;;;;;;5010104;28;20044;-58
2023/04/03 12:30:42;;;;;;;6.18;3.28;;;;;;;;;;5002872;28;20038;-59
2023/04/03 12:33:07;;;;;;;5.28;2.80;;;;;;;;;;4997581;28;20079;-61
2023/04/03 12:35:40;;;;;;;6.32;2.50;;;;;;;;;;4998312;28;20038;-62
2023/04/03 12:38:14;;;;;;;4.82;2.78;;;;;;;;;;4998500;28;20041;-58
2023/04/03 12:40:42;;;;;;;4.22;2.45;;;;;;;;;;5002983;28;20030;-58
2023/04/03 12:43:26;;;;;;;7.18;2.80;;;;;;;;;;4999877;28;20390;-58
2023/04/03 12:45:52;;;;;;;4.97;2.60;;;;;;;;;;4996215;28;20026;-58
2023/04/03 12:48:18;;;;;;;5.97;3.17;;;;;;;;;;4999737;28;20026;-55
2023/04/03 12:50:46;;;;;;;6.85;2.50;;;;;;;;;;4997198;28;20030;-58
2023/04/03 12:53:11;;;;;;;6.35;3.00;;;;;;;;;;5002613;28;20418;-58
2023/04/03 12:55:36;;;;;;;6.00;2.70;;;;;;;;;;4997678;28;20040;-58
2023/04/03 12:58:16;;;;;;;4.97;2.60;;;;;;;;;;4994891;28;20041;-55
2023/04/03 13:00:42;;;;;;;9.13;3.28;;;;;;;;;;4994373;28;20117;-54
2023/04/03 13:03:20;;;;;;;5.15;2.85;;;;;;;;;;4995469;28;20440;-55
2023/04/03 13:05:45;;;;;;;5.93;2.80;;;;;;;;;;4994473;28;20037;-55
2023/04/03 13:08:14;;;;;;;8.25;2.78;;;;;;;;;;4993440;28;20038;-60
2023/04/03 13:10:47;;;;;;;6.38;2.78;;;;;;;;;;4996424;28;20038;-58
2023/04/03 13:13:14;;;;;;;4.43;2.92;;;;;;;;;;5010640;28;20184;-57
2023/04/03 13:15:45;;;;;;;5.50;2.80;;;;;;;;;;4996577;28;20061;-54
2023/04/03 13:18:32;;;;;;;4.82;2.47;;;;;;;;;;4994215;28;20061;-54
2023/04/03 13:21:03;;;;;;;4.53;2.75;;;;;;;;;;4996756;28;20577;-61
2023/04/03 13:23:29;;;;;;;4.60;2.58;;;;;;;;;;4996413;28;20069;-58
2023/04/03 13:25:55;;;;;;;5.35;2.60;;;;;;;;;;4997049;28;20029;-55
2023/04/03 13:28:22;;;;;;;4.45;2.33;;;;;;;;;;4996709;28;20037;-60
2023/04/03 13:31:14;;;;;;;5.72;3.03;;;;;;;;;;4996576;28;20121;-58
2023/04/03 13:33:43;;;;;;;5.88;2.47;;;;;;;;;;4998321;28;20038;-57
2023/04/03 13:36:22;;;;;;;5.30;2.65;;;;;;;;;;4992268;28;20065;-57
2023/04/03 13:38:59;;;;;;;3.92;2.25;;;;;;;;;;4993477;28;20161;-58
2023/04/03 13:41:35;;;;;;;5.35;2.53;;;;;;;;;;4996566;28;20030;-59
2023/04/03 13:44:16;;;;;;;6.05;3.00;;;;;;;;;;4997338;28;20038;-57
2023/04/03 13:46:41;;;;;;;9.77;3.75;;;;;;;;;;4993597;28;20049;-57
2023/04/03 13:49:22;;;;;;;8.25;3.53;;;;;;;;;;4997472;28;20346;-57
2023/04/03 13:51:48;;;;;;;5.97;2.72;;;;;;;;;;5005400;28;20268;-58
2023/04/03 13:54:22;;;;;;;4.85;2.50;;;;;;;;;;5005251;28;20037;-54
2023/04/03 13:56:52;;;;;;;6.00;2.72;;;;;;;;;;4958890;28;1112426;-56
2023/04/03 13:59:17;;;;;;;4.63;2.65;;;;;;;;;;4995885;28;20060;-59
2023/04/03 14:01:49;;;;;;;4.22;2.30;;;;;;;;;;4994064;28;20132;-58
2023/04/03 14:04:18;;;;;;;8.55;3.80;;;;;;;;;;4998216;28;20034;-53
2023/04/03 14:06:44;;;;;;;6.25;2.60;;;;;;;;;;4993470;28;20096;-58
2023/04/03 14:09:09;;;;;;;4.43;2.30;;;;;;;;;;4993086;28;20034;-59
2023/04/03 14:11:35;;;;;;;7.18;2.80;;;;;;;;;;4996314;28;20021;-58
2023/04/03 14:14:04;;;;;;;6.43;2.97;;;;;;;;;;4998600;28;20121;-57
2023/04/03 14:16:30;;;;;;;6.78;2.67;;;;;;;;;;5005282;28;20572;-55
2023/04/03 14:18:56;;;;;;;4.37;2.33;;;;;;;;;;4996185;28;20231;-58
2023/04/03 14:21:22;;;;;;;5.75;2.40;;;;;;;;;;4994372;28;20066;-58
2023/04/03 14:23:47;;;;;;;4.60;2.72;;;;;;;;;;4995542;28;20018;-56
2023/04/03 14:26:16;;;;;;;4.97;2.47;;;;;;;;;;4995057;28;20155;-56
2023/04/03 14:28:41;;;;;;;4.63;2.60;;;;;;;;;;4999637;28;20044;-58
2023/04/03 14:31:07;;;;;;;3.40;2.15;;;;;;;;;;4991345;28;20396;-60
2023/04/03 14:33:34;;;;;;;4.10;2.40;;;;;;;;;;4994467;28;20471;-58
2023/04/03 14:36:00;;;;;;;8.60;2.92;;;;;;;;;;4992283;28;20034;-59
2023/04/03 14:38:27;;;;;;;4.07;2.63;;;;;;;;;;5000610;28;20040;-58
2023/04/03 14:40:53;;;;;;;3.53;2.33;;;;;;;;;;4986872;28;20084;-58
2023/04/03 14:43:18;;;;;;;4.72;2.60;;;;;;;;;;4990456;28;20419;-58
2023/04/03 14:45:44;;;;;;;4.28;2.40;;;;;;;;;;4989307;28;20045;-57
2023/04/03 14:48:16;;;;;;;4.75;2.30;;;;;;;;;;5002813;28;20087;-58
2023/04/03 14:50:41;;;;;;;5.28;2.53;;;;;;;;;;4984336;28;20018;-55